createdAt,value
2018-06-23T00:01:51.955Z,0.50
2018-06-23T00:04:19.032Z,0.60
2018-06-23T00:06:46.673Z,0.40
2018-06-23T00:09:14.562Z,0.50
2018-06-23T00:11:41.681Z,0.40
2018-06-23T00:14:12.413Z,0.60
2018-06-23T00:16:40.802Z,0.30
2018-06-23T00:19:07.763Z,0.60
2018-06-23T00:21:35.076Z,0.40
2018-06-23T00:24:05.092Z,0.40
2018-06-23T00:26:33.184Z,0.67
2018-06-23T00:29:01.273Z,0.60
2018-06-23T00:31:29.474Z,0.40
2018-06-23T00:33:56.920Z,0.40
2018-06-23T00:36:24.436Z,0.60
2018-06-23T00:38:52.083Z,0.50
2018-06-23T00:41:19.863Z,0.40
2018-06-23T00:43:47.084Z,0.50
2018-06-23T00:46:15.000Z,0.40
2018-06-23T00:48:43.584Z,0.50
2018-06-23T00:51:11.225Z,0.50
2018-06-23T00:53:39.103Z,0.57
2018-06-23T00:56:07.976Z,0.40
2018-06-23T00:58:34.901Z,0.40
2018-06-23T01:01:01.727Z,0.60
2018-06-23T01:03:29.742Z,0.67
2018-06-23T01:05:57.678Z,0.60
2018-06-23T01:08:24.933Z,0.60
2018-06-23T01:10:52.886Z,0.40
2018-06-23T01:13:20.827Z,0.60
2018-06-23T01:15:47.836Z,0.30
2018-06-23T01:18:14.804Z,0.40
2018-06-23T01:20:41.970Z,0.40
2018-06-23T01:23:10.650Z,0.60
2018-06-23T01:25:37.656Z,0.40
2018-06-23T01:28:05.087Z,0.40
2018-06-23T01:30:32.293Z,0.50
2018-06-23T01:32:59.561Z,0.30
2018-06-23T01:35:26.729Z,0.50
2018-06-23T01:37:53.789Z,0.40
2018-06-23T01:40:21.705Z,0.40
2018-06-23T01:42:49.019Z,0.40
2018-06-23T01:45:16.057Z,0.40
2018-06-23T01:47:44.099Z,0.40
2018-06-23T01:50:10.937Z,0.40
2018-06-23T01:52:38.228Z,0.40
2018-06-23T01:55:05.218Z,0.43
2018-06-23T01:57:32.802Z,0.20
2018-06-23T01:59:59.757Z,0.40
2018-06-23T02:02:26.532Z,0.40
2018-06-23T02:04:53.919Z,0.50
2018-06-23T02:07:21.101Z,0.43
2018-06-23T02:09:48.699Z,0.40
2018-06-23T02:12:16.077Z,0.43
2018-06-23T02:14:42.967Z,0.30
2018-06-23T02:17:16.046Z,0.23
2018-06-23T02:19:49.054Z,0.20
2018-06-23T02:22:35.038Z,0.20
2018-06-23T02:25:18.567Z,0.37
2018-06-23T02:28:00.646Z,0.50
2018-06-23T02:30:28.264Z,0.30
2018-06-23T02:32:55.758Z,0.20
2018-06-23T02:35:22.740Z,0.40
2018-06-23T02:37:50.525Z,0.37
2018-06-23T02:40:18.302Z,0.30
2018-06-23T02:42:45.970Z,0.50
2018-06-23T02:45:12.967Z,0.30
2018-06-23T02:47:41.378Z,0.30
2018-06-23T02:50:08.560Z,0.40
2018-06-23T02:52:35.740Z,0.30
2018-06-23T02:55:03.140Z,0.30
2018-06-23T02:57:30.652Z,0.30
2018-06-23T02:59:58.527Z,0.30
2018-06-23T03:02:25.822Z,0.20
2018-06-23T03:04:52.890Z,0.30
2018-06-23T03:07:20.807Z,0.20
2018-06-23T03:09:47.645Z,0.20
2018-06-23T03:12:15.263Z,0.20
2018-06-23T03:14:42.116Z,0.20
2018-06-23T03:17:09.089Z,0.30
2018-06-23T03:19:36.069Z,0.20
2018-06-23T03:22:03.021Z,0.20
2018-06-23T03:24:30.517Z,0.20
2018-06-23T03:26:57.399Z,0.10
2018-06-23T03:29:24.138Z,0.10
2018-06-23T03:31:50.944Z,0.40
2018-06-23T03:34:17.877Z,0.20
2018-06-23T03:36:44.689Z,0.10
2018-06-23T03:39:11.874Z,0.20
2018-06-23T03:41:38.946Z,0.10
2018-06-23T03:44:06.874Z,0.10
2018-06-23T03:46:33.647Z,0.10
2018-06-23T03:49:00.680Z,0.20
2018-06-23T03:51:28.023Z,0.10
2018-06-23T03:53:55.879Z,0.10
2018-06-23T03:56:22.806Z,0.10
2018-06-23T03:58:49.657Z,0.30
2018-06-23T04:01:16.905Z,0.10
2018-06-23T04:03:44.349Z,0.20
2018-06-23T04:06:11.164Z,0.20
2018-06-23T04:08:38.338Z,0.20
2018-06-23T04:11:05.420Z,0.10
2018-06-23T04:13:32.570Z,0.10
2018-06-23T04:15:59.878Z,0.10
2018-06-23T04:18:27.254Z,0.10
2018-06-23T04:20:54.056Z,0.10
2018-06-23T04:23:21.279Z,0.10
2018-06-23T04:25:48.512Z,0.10
2018-06-23T04:28:15.470Z,0.40
2018-06-23T04:30:42.375Z,0.20
2018-06-23T04:33:09.386Z,0.10
2018-06-23T04:35:36.261Z,0.10
2018-06-23T04:38:03.871Z,0.20
2018-06-23T04:40:32.468Z,0.10
2018-06-23T04:43:00.376Z,0.20
2018-06-23T04:45:27.492Z,0.10
2018-06-23T04:47:54.310Z,0.17
2018-06-23T04:50:21.319Z,0.40
2018-06-23T04:52:48.316Z,0.10
2018-06-23T04:55:16.153Z,0.10
2018-06-23T04:57:43.642Z,0.13
2018-06-23T05:00:10.693Z,0.20
2018-06-23T05:02:37.927Z,0.20
2018-06-23T05:05:04.822Z,0.10
2018-06-23T05:07:32.014Z,0.10
2018-06-23T05:09:59.955Z,0.17
2018-06-23T05:12:27.219Z,0.10
2018-06-23T05:14:54.471Z,0.10
2018-06-23T05:17:21.383Z,0.10
2018-06-23T05:19:48.529Z,0.10
2018-06-23T05:22:15.913Z,0.10
2018-06-23T05:24:42.936Z,0.10
2018-06-23T05:27:09.839Z,0.20
2018-06-23T05:29:37.378Z,0.10
2018-06-23T05:32:04.890Z,0.20
2018-06-23T05:34:32.606Z,0.20
2018-06-23T05:37:00.664Z,0.10
2018-06-23T05:39:27.756Z,0.20
2018-06-23T05:41:54.872Z,0.20
2018-06-23T05:44:22.637Z,0.30
2018-06-23T05:46:50.003Z,0.28
2018-06-23T05:49:17.266Z,0.20
2018-06-23T05:51:44.352Z,0.13
2018-06-23T05:54:11.954Z,0.22
2018-06-23T05:56:39.033Z,0.20
2018-06-23T05:59:06.086Z,0.20
2018-06-23T06:01:32.957Z,0.20
2018-06-23T06:04:00.435Z,0.17
2018-06-23T06:06:27.420Z,0.30
2018-06-23T06:08:54.620Z,0.30
2018-06-23T06:11:21.858Z,0.20
2018-06-23T06:13:48.775Z,0.20
2018-06-23T06:16:16.835Z,0.20
2018-06-23T06:18:43.687Z,0.10
2018-06-23T06:21:11.502Z,0.17
2018-06-23T06:23:39.597Z,0.10
2018-06-23T06:26:06.419Z,0.15
2018-06-23T06:28:34.263Z,0.20
2018-06-23T06:31:01.810Z,0.10
2018-06-23T06:33:28.718Z,0.20
2018-06-23T06:35:55.661Z,0.10
2018-06-23T06:38:22.577Z,0.10
2018-06-23T06:40:50.694Z,0.10
2018-06-23T06:43:17.918Z,0.10
2018-06-23T06:45:44.745Z,0.10
2018-06-23T06:48:13.705Z,0.13
2018-06-23T06:50:40.847Z,0.10
2018-06-23T06:53:07.956Z,0.10
2018-06-23T06:55:34.969Z,0.10
2018-06-23T06:58:03.449Z,0.10
2018-06-23T07:00:31.119Z,0.10
2018-06-23T07:02:58.247Z,0.13
2018-06-23T07:05:25.857Z,0.10
2018-06-23T07:07:52.706Z,0.10
2018-06-23T07:10:19.739Z,0.10
2018-06-23T07:12:47.073Z,0.13
2018-06-23T07:15:14.767Z,0.20
2018-06-23T07:17:42.088Z,0.20
2018-06-23T07:20:09.796Z,0.20
2018-06-23T07:22:37.014Z,0.28
2018-06-23T07:25:03.995Z,0.20
2018-06-23T07:27:31.357Z,0.20
2018-06-23T07:29:59.092Z,0.10
2018-06-23T07:32:27.669Z,0.10
2018-06-23T07:34:54.757Z,0.20
2018-06-23T07:37:22.378Z,0.20
2018-06-23T07:39:50.007Z,0.10
2018-06-23T07:42:18.732Z,0.20
2018-06-23T07:44:46.089Z,0.10
2018-06-23T07:47:13.810Z,0.10
2018-06-23T07:49:41.803Z,0.10
2018-06-23T07:52:09.830Z,0.35
2018-06-23T07:54:37.034Z,0.28
2018-06-23T07:57:04.272Z,0.17
2018-06-23T07:59:32.395Z,0.10
2018-06-23T08:02:01.265Z,0.20
2018-06-23T08:04:28.316Z,0.33
2018-06-23T08:06:56.505Z,0.20
2018-06-23T08:09:24.502Z,0.10
2018-06-23T08:11:53.716Z,0.10
2018-06-23T08:14:20.667Z,0.10
2018-06-23T08:16:48.909Z,0.10
2018-06-23T08:19:16.544Z,0.10
2018-06-23T08:21:44.409Z,0.10
2018-06-23T08:24:11.971Z,0.20
2018-06-23T08:26:39.892Z,0.10
2018-06-23T08:29:06.789Z,0.10
2018-06-23T08:31:34.010Z,0.20
2018-06-23T08:34:02.366Z,0.10
2018-06-23T08:36:31.216Z,0.10
2018-06-23T08:38:58.405Z,0.22
2018-06-23T08:41:26.177Z,0.10
2018-06-23T08:43:53.306Z,0.10
2018-06-23T08:46:21.053Z,0.13
2018-06-23T08:48:48.661Z,0.20
2018-06-23T08:51:15.656Z,0.20
2018-06-23T08:53:42.994Z,0.30
2018-06-23T08:56:09.914Z,0.20
2018-06-23T08:58:37.833Z,0.25
2018-06-23T09:01:06.053Z,0.20
2018-06-23T09:03:34.163Z,0.17
2018-06-23T09:06:02.576Z,0.30
2018-06-23T09:08:30.046Z,0.13
2018-06-23T09:10:58.478Z,0.10
2018-06-23T09:13:25.860Z,0.10
2018-06-23T09:15:54.533Z,0.10
2018-06-23T09:18:22.605Z,0.20
2018-06-23T09:20:49.551Z,0.20
2018-06-23T09:23:16.943Z,0.10
2018-06-23T09:25:44.534Z,0.20
2018-06-23T09:28:11.553Z,0.10
2018-06-23T09:30:38.434Z,0.20
2018-06-23T09:33:05.594Z,0.20
2018-06-23T09:35:33.165Z,0.17
2018-06-23T09:37:59.998Z,0.20
2018-06-23T09:40:27.108Z,0.20
2018-06-23T09:42:54.960Z,0.30
2018-06-23T09:45:22.452Z,0.20
2018-06-23T09:47:49.797Z,0.20
2018-06-23T09:50:18.046Z,0.10
2018-06-23T09:52:47.066Z,0.13
2018-06-23T09:55:14.411Z,0.20
2018-06-23T09:57:49.821Z,0.20
2018-06-23T10:00:16.811Z,0.20
2018-06-23T10:02:44.506Z,0.30
2018-06-23T10:05:11.453Z,0.13
2018-06-23T10:07:38.756Z,0.20
2018-06-23T10:10:06.311Z,0.20
2018-06-23T10:12:33.501Z,0.30
2018-06-23T10:15:00.544Z,0.20
2018-06-23T10:17:28.151Z,0.10
2018-06-23T10:19:56.107Z,0.30
2018-06-23T10:22:23.817Z,0.40
2018-06-23T10:24:51.099Z,0.30
2018-06-23T10:27:18.471Z,0.20
2018-06-23T10:29:45.350Z,0.20
2018-06-23T10:32:12.659Z,0.20
2018-06-23T10:34:39.509Z,0.20
2018-06-23T10:37:07.137Z,0.23
2018-06-23T10:39:33.986Z,0.20
2018-06-23T10:42:02.652Z,0.20
2018-06-23T10:44:29.550Z,0.30
2018-06-23T10:46:58.487Z,0.23
2018-06-23T10:49:26.012Z,0.20
2018-06-23T10:51:53.827Z,0.20
2018-06-23T10:54:20.768Z,0.20
2018-06-23T10:56:47.932Z,0.30
2018-06-23T10:59:16.180Z,0.13
2018-06-23T11:01:43.664Z,0.20
2018-06-23T11:04:10.794Z,0.30
2018-06-23T11:06:37.945Z,0.20
2018-06-23T11:09:05.814Z,0.20
2018-06-23T11:11:33.074Z,0.20
2018-06-23T11:14:00.433Z,0.20
2018-06-23T11:16:27.692Z,0.10
2018-06-23T11:18:54.950Z,0.30
2018-06-23T11:21:22.093Z,0.23
2018-06-23T11:23:49.001Z,0.20
2018-06-23T11:26:16.241Z,0.40
2018-06-23T11:28:43.926Z,0.20
2018-06-23T11:31:11.650Z,0.33
2018-06-23T11:33:39.230Z,0.30
2018-06-23T11:36:07.087Z,0.30
2018-06-23T11:38:33.955Z,0.30
2018-06-23T11:41:00.925Z,0.30
2018-06-23T11:43:28.562Z,0.40
2018-06-23T11:45:55.708Z,0.30
2018-06-23T11:48:22.753Z,0.30
2018-06-23T11:50:49.709Z,0.20
2018-06-23T11:53:16.672Z,0.30
2018-06-23T11:55:43.576Z,0.30
2018-06-23T11:58:11.384Z,0.37
2018-06-23T12:00:38.435Z,0.30
2018-06-23T12:03:05.653Z,0.30
2018-06-23T12:05:32.554Z,0.30
2018-06-23T12:07:59.702Z,0.30
2018-06-23T12:10:27.983Z,0.30
2018-06-23T12:12:54.877Z,0.20
2018-06-23T12:15:21.983Z,0.30
2018-06-23T12:17:49.756Z,0.20
2018-06-23T12:20:16.808Z,0.40
2018-06-23T12:22:43.759Z,0.50
2018-06-23T12:25:10.708Z,0.30
2018-06-23T12:27:37.481Z,0.33
2018-06-23T12:30:04.315Z,0.30
2018-06-23T12:32:31.253Z,0.30
2018-06-23T12:34:58.203Z,0.40
2018-06-23T12:37:25.055Z,0.33
2018-06-23T12:39:52.011Z,0.30
2018-06-23T12:42:18.967Z,0.20
2018-06-23T12:44:45.905Z,0.27
2018-06-23T12:47:12.856Z,0.30
2018-06-23T12:49:39.811Z,0.40
2018-06-23T12:52:07.098Z,0.33
2018-06-23T12:54:35.551Z,0.43
2018-06-23T12:57:02.605Z,0.40
2018-06-23T12:59:30.588Z,0.30
2018-06-23T13:01:57.324Z,0.33
2018-06-23T13:04:24.069Z,0.20
2018-06-23T13:06:51.943Z,0.30
2018-06-23T13:09:21.145Z,0.33
2018-06-23T13:11:50.976Z,0.50
2018-06-23T13:14:22.181Z,0.20
2018-06-23T13:16:49.776Z,0.30
2018-06-23T13:19:16.541Z,0.43
2018-06-23T13:21:43.576Z,0.40
2018-06-23T13:24:10.417Z,0.40
2018-06-23T13:26:37.275Z,0.37
2018-06-23T13:29:04.421Z,0.50
2018-06-23T13:31:31.482Z,0.40
2018-06-23T13:33:58.331Z,0.40
2018-06-23T13:36:25.288Z,0.40
2018-06-23T13:38:52.183Z,0.83
2018-06-23T13:41:19.050Z,0.90
2018-06-23T13:43:46.588Z,0.33
2018-06-23T13:46:13.493Z,0.30
2018-06-23T13:48:40.368Z,0.30
2018-06-23T13:51:07.191Z,0.30
2018-06-23T13:53:33.984Z,0.47
2018-06-23T13:56:00.775Z,0.50
2018-06-23T13:58:27.919Z,0.50
2018-06-23T14:00:54.895Z,0.30
2018-06-23T14:03:21.712Z,0.43
2018-06-23T14:05:48.421Z,0.33
2018-06-23T14:08:15.233Z,0.40
2018-06-23T14:10:42.810Z,0.40
2018-06-23T14:13:09.650Z,0.30
2018-06-23T14:15:36.607Z,0.50
2018-06-23T14:18:03.523Z,0.50
2018-06-23T14:20:30.362Z,0.40
2018-06-23T14:22:57.874Z,0.60
2018-06-23T14:25:25.278Z,0.33
2018-06-23T14:27:52.174Z,0.50
2018-06-23T14:30:19.745Z,0.50
2018-06-23T14:32:46.686Z,0.40
2018-06-23T14:35:13.923Z,0.40
2018-06-23T14:37:40.979Z,0.50
2018-06-23T14:40:07.861Z,0.40
2018-06-23T14:42:34.656Z,0.50
2018-06-23T14:45:02.286Z,0.60
2018-06-23T14:47:29.089Z,0.50
2018-06-23T14:49:56.597Z,0.33
2018-06-23T14:52:23.360Z,0.50
2018-06-23T14:54:50.423Z,0.53
2018-06-23T14:57:18.002Z,0.50
2018-06-23T14:59:45.556Z,0.40
2018-06-23T15:02:13.190Z,0.57
2018-06-23T15:04:39.927Z,0.50
2018-06-23T15:07:25.630Z,0.70
2018-06-23T15:10:16.848Z,0.60
2018-06-23T15:13:08.924Z,0.80
2018-06-23T15:15:37.076Z,0.50
2018-06-23T15:18:04.769Z,0.50
2018-06-23T15:20:31.719Z,0.77
2018-06-23T15:22:58.568Z,0.53
2018-06-23T15:25:25.419Z,0.60
2018-06-23T15:27:52.676Z,0.63
2018-06-23T15:30:19.851Z,0.90
2018-06-23T15:32:46.885Z,0.60
2018-06-23T15:35:13.731Z,0.70
2018-06-23T15:37:40.581Z,0.60
2018-06-23T15:40:07.435Z,0.70
2018-06-23T15:42:34.268Z,0.83
2018-06-23T15:45:01.126Z,0.50
2018-06-23T15:47:27.978Z,0.70
2018-06-23T15:50:01.886Z,0.80
2018-06-23T15:52:29.572Z,0.90
2018-06-23T15:54:57.122Z,0.80
2018-06-23T15:57:24.068Z,0.80
2018-06-23T15:59:52.394Z,0.87
2018-06-23T16:02:19.403Z,0.70
2018-06-23T16:04:47.478Z,0.70
2018-06-23T16:07:14.943Z,0.87
2018-06-23T16:09:43.939Z,0.90
2018-06-23T16:12:11.931Z,0.80
2018-06-23T16:14:39.787Z,1.10
2018-06-23T16:17:09.788Z,1.00
2018-06-23T16:19:42.362Z,1.00
2018-06-23T16:22:13.055Z,0.93
2018-06-23T16:24:42.642Z,0.90
2018-06-23T16:27:15.436Z,1.20
2018-06-23T16:29:49.164Z,0.83
2018-06-23T16:32:18.774Z,0.73
2018-06-23T16:34:49.433Z,0.93
2018-06-23T16:37:21.010Z,0.87
2018-06-23T16:39:56.526Z,0.90
2018-06-23T16:42:28.131Z,1.10
2018-06-23T16:44:59.013Z,1.07
2018-06-23T16:47:30.568Z,0.80
2018-06-23T16:50:01.546Z,1.10
2018-06-23T16:52:31.721Z,1.00
2018-06-23T16:55:06.095Z,1.00
2018-06-23T16:57:39.095Z,1.03
2018-06-23T17:00:11.936Z,0.80
2018-06-23T17:02:43.852Z,0.90
2018-06-23T17:05:14.949Z,1.03
2018-06-23T17:07:43.761Z,0.90
2018-06-23T17:10:18.865Z,0.90
2018-06-23T17:12:49.103Z,1.00
2018-06-23T17:15:20.329Z,0.97
2018-06-23T17:17:51.422Z,0.83
2018-06-23T17:20:24.924Z,1.00
2018-06-23T17:22:57.856Z,0.90
2018-06-23T17:25:28.014Z,0.97
2018-06-23T17:27:59.010Z,0.97
2018-06-23T17:30:29.237Z,0.87
2018-06-23T17:32:59.763Z,0.90
2018-06-23T17:35:29.865Z,0.93
2018-06-23T17:37:59.751Z,0.90
2018-06-23T17:40:30.712Z,1.10
2018-06-23T17:43:02.988Z,0.70
2018-06-23T17:45:33.627Z,1.07
2018-06-23T17:48:06.765Z,1.23
2018-06-23T17:50:35.074Z,0.93
2018-06-23T17:53:06.648Z,0.90
2018-06-23T17:55:37.538Z,0.90
2018-06-23T17:58:11.123Z,0.80
2018-06-23T18:00:42.293Z,0.70
2018-06-23T18:03:16.122Z,0.80
2018-06-23T18:05:48.508Z,1.00
2018-06-23T18:08:22.336Z,0.90
2018-06-23T18:10:54.301Z,0.93
2018-06-23T18:13:27.629Z,0.80
2018-06-23T18:16:00.962Z,0.80
2018-06-23T18:18:32.646Z,0.70
2018-06-23T18:21:05.615Z,0.83
2018-06-23T18:23:34.577Z,0.80
2018-06-23T18:26:06.847Z,0.90
2018-06-23T18:28:37.007Z,0.80
2018-06-23T18:31:07.395Z,0.73
2018-06-23T18:33:34.879Z,0.63
2018-06-23T18:36:03.771Z,0.80
2018-06-23T18:38:34.095Z,0.90
2018-06-23T18:41:07.328Z,1.10
2018-06-23T18:43:37.772Z,0.90
2018-06-23T18:46:06.596Z,0.87
2018-06-23T18:48:33.451Z,0.80
2018-06-23T18:51:03.587Z,1.10
2018-06-23T18:53:32.363Z,1.03
2018-06-23T18:56:02.571Z,0.70
2018-06-23T18:58:31.479Z,0.97
2018-06-23T19:01:01.514Z,0.87
2018-06-23T19:03:30.781Z,0.80
2018-06-23T19:05:58.983Z,0.87
2018-06-23T19:08:29.641Z,1.10
2018-06-23T19:10:58.113Z,0.80
2018-06-23T19:13:29.336Z,0.83
2018-06-23T19:15:59.479Z,0.90
2018-06-23T19:18:29.541Z,0.87
2018-06-23T19:20:58.906Z,0.80
2018-06-23T19:23:26.268Z,0.87
2018-06-23T19:25:57.069Z,1.00
2018-06-23T19:28:26.721Z,0.67
2018-06-23T19:30:56.976Z,0.90
2018-06-23T19:33:24.208Z,0.90
2018-06-23T19:35:52.591Z,0.93
2018-06-23T19:38:20.520Z,1.00
2018-06-23T19:40:51.129Z,0.83
2018-06-23T19:43:21.399Z,0.90
2018-06-23T19:45:49.013Z,1.20
2018-06-23T19:48:18.076Z,0.90
2018-06-23T19:50:45.839Z,1.00
2018-06-23T19:53:12.669Z,0.80
2018-06-23T19:55:40.599Z,0.63
2018-06-23T19:58:09.364Z,0.77
2018-06-23T20:00:37.861Z,0.77
2018-06-23T20:03:04.991Z,0.80
2018-06-23T20:05:31.761Z,1.10
2018-06-23T20:07:58.700Z,1.10
2018-06-23T20:10:25.555Z,1.20
2018-06-23T20:12:52.350Z,1.07
2018-06-23T20:15:19.406Z,1.00
2018-06-23T20:17:47.075Z,1.00
2018-06-23T20:20:14.609Z,1.10
2018-06-23T20:22:41.892Z,1.00
2018-06-23T20:25:08.811Z,1.00
2018-06-23T20:27:35.634Z,0.80
2018-06-23T20:30:02.467Z,0.80
2018-06-23T20:32:29.360Z,0.80
2018-06-23T20:34:56.112Z,1.10
2018-06-23T20:37:23.015Z,1.07
2018-06-23T20:39:49.894Z,0.93
2018-06-23T20:42:17.810Z,0.80
2018-06-23T20:44:44.574Z,0.90
2018-06-23T20:47:11.468Z,1.10
2018-06-23T20:49:38.223Z,0.73
2018-06-23T20:52:05.828Z,0.80
2018-06-23T20:54:33.412Z,0.87
2018-06-23T20:57:00.216Z,1.00
2018-06-23T20:59:27.051Z,1.00
2018-06-23T21:01:54.414Z,1.10
2018-06-23T21:04:21.144Z,1.07
2018-06-23T21:06:48.001Z,1.07
2018-06-23T21:09:14.821Z,0.90
2018-06-23T21:11:41.625Z,1.03
2018-06-23T21:14:08.431Z,0.97
2018-06-23T21:16:35.350Z,1.00
2018-06-23T21:19:03.353Z,0.87
2018-06-23T21:21:30.289Z,0.80
2018-06-23T21:23:57.046Z,1.00
2018-06-23T21:26:23.896Z,0.83
2018-06-23T21:28:50.664Z,0.97
2018-06-23T21:31:17.410Z,0.90
2018-06-23T21:33:44.648Z,1.00
2018-06-23T21:36:11.910Z,0.90
2018-06-23T21:38:38.701Z,1.00
2018-06-23T21:41:05.714Z,1.10
2018-06-23T21:43:32.505Z,0.90
2018-06-23T21:45:59.232Z,0.80
2018-06-23T21:48:25.941Z,1.13
2018-06-23T21:50:52.722Z,1.10
2018-06-23T21:53:19.614Z,0.80
2018-06-23T21:55:46.376Z,1.00
2018-06-23T21:58:13.259Z,1.03
2018-06-23T22:00:39.986Z,0.77
2018-06-23T22:03:06.777Z,0.97
2018-06-23T22:05:34.610Z,0.80
2018-06-23T22:08:01.660Z,0.90
2018-06-23T22:10:28.424Z,0.80
2018-06-23T22:12:56.145Z,0.90
2018-06-23T22:15:23.090Z,0.90
2018-06-23T22:17:50.684Z,0.80
2018-06-23T22:20:17.844Z,0.90
2018-06-23T22:22:44.691Z,0.93
2018-06-23T22:25:11.855Z,1.10
2018-06-23T22:27:39.667Z,1.10
2018-06-23T22:30:07.998Z,0.67
2018-06-23T22:32:35.403Z,0.73
2018-06-23T22:35:02.314Z,0.97
2018-06-23T22:37:29.336Z,0.93
2018-06-23T22:39:56.212Z,0.70
2018-06-23T22:42:23.165Z,0.80
2018-06-23T22:44:50.016Z,0.73
2018-06-23T22:47:16.847Z,0.70
2018-06-23T22:49:44.015Z,1.00
2018-06-23T22:52:10.965Z,0.87
2018-06-23T22:54:37.765Z,0.67
2018-06-23T22:57:05.288Z,0.97
2018-06-23T22:59:32.398Z,1.00
2018-06-23T23:01:59.936Z,0.90
2018-06-23T23:04:26.884Z,1.00
2018-06-23T23:06:54.580Z,0.90
2018-06-23T23:09:21.364Z,0.63
2018-06-23T23:11:48.096Z,0.80
2018-06-23T23:14:14.953Z,0.80
2018-06-23T23:16:41.997Z,0.60
2018-06-23T23:19:09.065Z,0.83
2018-06-23T23:21:36.654Z,0.80
2018-06-23T23:24:03.591Z,0.93
2018-06-23T23:26:30.554Z,0.80
2018-06-23T23:28:57.726Z,0.90
2018-06-23T23:31:24.561Z,1.00
2018-06-23T23:33:51.384Z,1.07
2018-06-23T23:36:18.248Z,1.03
2018-06-23T23:38:45.862Z,0.90
2018-06-23T23:41:12.723Z,0.80
2018-06-23T23:43:40.184Z,1.00
2018-06-23T23:46:06.956Z,0.90
2018-06-23T23:48:34.540Z,1.20
2018-06-23T23:51:01.561Z,0.87
2018-06-23T23:53:28.330Z,1.13
2018-06-23T23:55:55.162Z,1.00
2018-06-23T23:58:22.745Z,1.10
